Terminal Aerodrome Forecast
Issued by NWS Greer, SC

Home | Current Version | Previous Version | Text Only | Print | Product List | Glossary On
Versions: 1 2 3 4 5 6 7 8 9 10 11 12 13 14 15 16 17 18 19 20 21 22 23 24 25 26 27 28 29 30 31 32 33 34 35 36 37 38 39 40 41 42 43 44 45 46 47 48 49 50
000
FTUS42 KGSP 252117 AAB
TAFCLT
TAF AMD
KCLT 252117Z 2521/2618 01005KT P6SM SCT030 OVC100
     FM252300 05007KT P6SM OVC035
     FM260200 02008KT 6SM -RA BR OVC020
     FM260800 35010KT 3SM RA BR OVC007=

USA.gov is the U.S. government's official web portal to all federal, state and local government web resources and services.